Time;durP1;ratioP1;P1;durP2;ratioP2;P2;SDS_P1;SDS_P2;PMS_P1;PMS_P2;Temp;Humidity;BMP_temperature;BMP_pressure;BME280_temperature;BME280_humidity;BME280_pressure;Samples;Min_cycle;Max_cycle;Signal;HPM_P1;HPM_P2
2022/04/25 00:01:13;;;;;;;5.10;1.65;;;13.00;99.90;;;;;;4900996;29;20507;-79
2022/04/25 00:03:38;;;;;;;3.10;2.10;;;12.90;99.90;;;;;;4900800;29;20029;-77
2022/04/25 00:06:04;;;;;;;2.28;1.60;;;12.90;99.90;;;;;;4901805;29;20511;-80
2022/04/25 00:08:30;;;;;;;2.13;1.13;;;12.90;99.90;;;;;;4901036;29;20028;-79
2022/04/25 00:10:56;;;;;;;2.40;1.15;;;12.90;99.90;;;;;;4899394;29;20172;-80
2022/04/25 00:13:21;;;;;;;2.17;1.15;;;12.90;99.90;;;;;;4898796;29;20042;-81
2022/04/25 00:15:47;;;;;;;20.23;1.50;;;12.90;99.90;;;;;;4900879;29;20539;-80
2022/04/25 00:18:13;;;;;;;6.88;1.20;;;12.90;99.90;;;;;;4899359;29;20024;-80
2022/04/25 00:20:38;;;;;;;1.10;1.02;;;12.90;99.90;;;;;;4906603;29;20035;-77
2022/04/25 00:23:06;;;;;;;1.85;1.58;;;12.90;99.90;;;;;;4919762;29;20028;-80
2022/04/25 00:25:35;;;;;;;1.52;1.42;;;12.90;99.90;;;;;;4919344;29;20515;-76
2022/04/25 00:28:03;;;;;;;1.30;1.17;;;12.90;99.90;;;;;;4919598;29;20024;-79
2022/04/25 00:30:29;;;;;;;1.25;1.15;;;12.90;99.90;;;;;;4919080;29;20111;-77
2022/04/25 00:32:58;;;;;;;1.38;1.25;;;12.90;99.90;;;;;;4918996;29;20440;-80
2022/04/25 00:35:25;;;;;;;3.42;2.20;;;12.90;99.90;;;;;;4918353;29;20028;-81
2022/04/25 00:37:54;;;;;;;2.28;0.77;;;12.90;99.90;;;;;;4925286;29;20084;-76
2022/04/25 00:40:22;;;;;;;2.03;1.30;;;12.90;99.90;;;;;;4938343;29;20099;-76
2022/04/25 00:42:49;;;;;;;3.90;2.75;;;12.90;99.90;;;;;;4938176;29;20475;-76
2022/04/25 00:45:16;;;;;;;2.58;2.38;;;12.90;99.90;;;;;;4938277;29;20031;-76
2022/04/25 00:47:43;;;;;;;42.40;3.67;;;12.90;99.90;;;;;;4938180;29;20024;-77
2022/04/25 00:50:10;;;;;;;3.03;1.52;;;12.90;99.90;;;;;;4938161;29;20066;-76
2022/04/25 00:52:36;;;;;;;2.67;1.63;;;12.90;99.90;;;;;;4936432;29;20027;-79
2022/04/25 00:55:04;;;;;;;2.47;1.42;;;12.90;99.90;;;;;;4907730;29;20048;-76
2022/04/25 00:57:31;;;;;;;3.38;1.27;;;12.80;99.90;;;;;;4899646;29;20112;-78
2022/04/25 00:59:57;;;;;;;6.82;2.47;;;12.90;99.90;;;;;;4913838;29;20032;-79
2022/04/25 01:02:26;;;;;;;3.97;1.60;;;12.90;99.90;;;;;;4918667;29;20024;-77
2022/04/25 01:04:53;;;;;;;1.25;1.10;;;12.80;99.90;;;;;;4917190;29;20039;-77
2022/04/25 01:07:18;;;;;;;5.22;2.17;;;12.90;99.90;;;;;;4918855;29;20028;-76
2022/04/25 01:09:44;;;;;;;12.40;1.60;;;12.90;99.90;;;;;;4916727;29;20032;-80
2022/04/25 01:12:10;;;;;;;9.15;0.95;;;12.90;99.90;;;;;;4917054;29;20033;-80
2022/04/25 01:14:35;;;;;;;2.00;0.77;;;12.90;99.90;;;;;;4917497;29;20032;-78
2022/04/25 01:17:02;;;;;;;2.47;1.85;;;12.90;99.90;;;;;;4918478;29;20028;-77
2022/04/25 01:19:28;;;;;;;2.63;2.42;;;12.90;99.90;;;;;;4917910;29;20483;-76
2022/04/25 01:21:54;;;;;;;4.55;1.60;;;12.90;99.90;;;;;;4920340;29;20043;-77
2022/04/25 01:27:17;;;;;;;3.63;1.88;;;12.90;99.90;;;;;;4918195;29;20657;-76
2022/04/25 01:29:53;;;;;;;3.47;2.25;;;12.90;99.90;;;;;;4916937;29;20412;-77
2022/04/25 01:32:21;;;;;;;1.13;1.05;;;12.90;99.90;;;;;;4918332;29;20035;-76
2022/04/25 01:34:47;;;;;;;10.55;3.08;;;12.90;99.90;;;;;;4917746;29;20043;-80
2022/04/25 01:37:15;;;;;;;3.17;2.85;;;12.90;99.90;;;;;;4920571;29;20032;-80
2022/04/25 01:39:44;;;;;;;1.58;1.48;;;12.80;99.90;;;;;;4938701;29;20059;-81
2022/04/25 01:42:10;;;;;;;1.58;1.48;;;12.80;99.90;;;;;;4935659;29;20019;-76
2022/04/25 01:44:36;;;;;;;3.85;1.67;;;12.80;99.90;;;;;;4936248;29;20043;-80
2022/04/25 01:47:03;;;;;;;6.03;1.65;;;12.80;99.90;;;;;;4936983;29;20032;-77
2022/04/25 01:49:29;;;;;;;3.38;1.83;;;12.80;99.90;;;;;;4936679;29;20030;-81
2022/04/25 01:51:55;;;;;;;4.38;2.13;;;12.90;99.90;;;;;;4936750;29;20024;-80
2022/04/25 01:54:27;;;;;;;0.85;0.60;;;12.90;99.90;;;;;;4926233;29;20057;-77
2022/04/25 01:56:54;;;;;;;1.92;1.23;;;12.90;99.90;;;;;;4897821;29;20437;-80
2022/04/25 01:59:20;;;;;;;1.50;1.40;;;12.90;99.90;;;;;;4902813;29;20031;-76
2022/04/25 02:01:46;;;;;;;1.60;0.82;;;12.90;99.90;;;;;;4898717;29;20072;-76
2022/04/25 02:04:12;;;;;;;2.63;1.33;;;12.90;99.90;;;;;;4896545;29;20478;-76
2022/04/25 02:06:38;;;;;;;2.50;1.30;;;12.90;99.90;;;;;;4899035;29;20033;-80
2022/04/25 02:09:03;;;;;;;6.57;0.95;;;12.90;99.90;;;;;;4899150;29;20059;-76
2022/04/25 02:11:31;;;;;;;4.13;1.92;;;12.90;99.90;;;;;;4898386;29;20025;-80
2022/04/25 02:13:57;;;;;;;5.63;1.38;;;12.80;99.90;;;;;;4896399;29;20176;-76
2022/04/25 02:16:24;;;;;;;2.33;1.23;;;12.80;99.90;;;;;;4898458;29;20029;-79
2022/04/25 02:18:50;;;;;;;1.60;1.50;;;12.90;99.90;;;;;;4897606;29;20396;-77
2022/04/25 02:21:16;;;;;;;2.90;0.80;;;12.90;99.90;;;;;;4897180;29;20035;-76
2022/04/25 02:23:42;;;;;;;6.25;2.10;;;12.80;99.90;;;;;;4899118;29;20032;-81
2022/04/25 02:26:09;;;;;;;3.22;0.98;;;12.90;99.90;;;;;;4898153;29;20512;-76
2022/04/25 02:28:36;;;;;;;1.08;0.77;;;12.80;99.90;;;;;;4898248;29;20056;-79
2022/04/25 02:31:04;;;;;;;1.95;1.52;;;12.80;99.90;;;;;;4898282;29;20040;-79
2022/04/25 02:33:30;;;;;;;0.63;0.63;;;12.80;99.90;;;;;;4898214;29;20523;-79
2022/04/25 02:35:56;;;;;;;2.97;2.03;;;12.90;99.90;;;;;;4898347;29;20048;-76
2022/04/25 02:38:21;;;;;;;0.60;0.52;;;12.90;99.90;;;;;;4898898;29;20560;-76
2022/04/25 02:41:04;;;;;;;4.45;1.73;;;12.90;99.90;;;;;;4897142;29;20040;-76
2022/04/25 02:43:31;;;;;;;0.47;0.47;;;12.90;99.90;;;;;;4898883;29;20103;-76
2022/04/25 02:45:57;;;;;;;2.08;1.50;;;12.90;99.90;;;;;;4898219;29;20080;-81
2022/04/25 02:48:22;;;;;;;1.40;1.05;;;12.90;99.90;;;;;;4897890;29;20480;-77
2022/04/25 02:50:48;;;;;;;2.45;1.17;;;12.80;99.90;;;;;;4898000;29;20076;-76
2022/04/25 02:53:14;;;;;;;1.88;1.77;;;12.80;99.90;;;;;;4897240;29;20028;-79
2022/04/25 02:55:40;;;;;;;0.70;0.70;;;12.80;99.90;;;;;;4899043;29;20551;-79
2022/04/25 02:58:06;;;;;;;13.60;1.80;;;12.80;99.90;;;;;;4898881;29;20025;-80
2022/04/25 03:00:31;;;;;;;1.83;1.15;;;12.80;99.90;;;;;;4897779;29;20119;-76
2022/04/25 03:02:57;;;;;;;1.67;1.08;;;12.80;99.90;;;;;;4897897;29;20500;-76
2022/04/25 03:05:23;;;;;;;8.77;2.38;;;12.80;99.90;;;;;;4897833;29;20469;-77
2022/04/25 03:07:48;;;;;;;1.75;1.15;;;12.80;99.90;;;;;;4896812;29;20481;-76
2022/04/25 03:10:14;;;;;;;3.80;2.65;;;12.80;99.90;;;;;;4900386;29;20552;-77
2022/04/25 03:12:40;;;;;;;1.85;1.23;;;12.80;99.90;;;;;;4896770;29;20024;-78
2022/04/25 03:15:06;;;;;;;1.60;1.40;;;12.80;99.90;;;;;;4897957;29;20028;-76
2022/04/25 03:17:32;;;;;;;2.17;1.25;;;12.80;99.90;;;;;;4901486;29;20056;-78
2022/04/25 03:19:58;;;;;;;5.60;1.38;;;12.80;99.90;;;;;;4901274;29;20475;-76
2022/04/25 03:22:24;;;;;;;1.30;1.20;;;12.90;99.90;;;;;;4901968;29;20025;-76
2022/04/25 03:24:50;;;;;;;3.80;2.08;;;12.80;99.90;;;;;;4901523;29;20035;-76
2022/04/25 03:27:15;;;;;;;1.75;1.35;;;12.80;99.90;;;;;;4901252;29;20049;-76
2022/04/25 03:29:41;;;;;;;6.57;1.88;;;12.80;99.90;;;;;;4900777;29;20084;-77
2022/04/25 03:32:07;;;;;;;0.80;0.80;;;12.80;99.90;;;;;;4901475;29;20049;-79
2022/04/25 03:34:34;;;;;;;2.83;1.33;;;12.80;99.90;;;;;;4900329;29;20029;-76
2022/04/25 03:37:00;;;;;;;3.05;1.50;;;12.80;99.90;;;;;;4904663;29;20028;-80
2022/04/25 03:39:25;;;;;;;2.40;1.23;;;12.80;99.90;;;;;;4937701;29;20023;-76
2022/04/25 03:41:52;;;;;;;1.85;1.45;;;12.80;99.90;;;;;;4939138;29;20452;-79
2022/04/25 03:44:18;;;;;;;2.10;1.98;;;12.80;99.90;;;;;;4938180;29;20024;-76
2022/04/25 03:46:44;;;;;;;0.57;0.57;;;12.80;99.90;;;;;;4939568;29;20034;-79
2022/04/25 03:49:09;;;;;;;0.28;0.28;;;12.80;99.90;;;;;;4938894;29;20498;-80
2022/04/25 03:51:35;;;;;;;16.55;3.15;;;12.80;99.90;;;;;;4939167;29;20039;-76
2022/04/25 03:54:00;;;;;;;3.22;0.98;;;12.80;99.90;;;;;;4925818;29;20481;-79
2022/04/25 03:59:11;;;;;;;3.45;1.02;;;12.80;99.90;;;;;;4901431;29;20096;-79
2022/04/25 04:01:36;;;;;;;1.15;1.05;;;12.80;99.90;;;;;;4899394;29;20028;-77
2022/04/25 04:04:05;;;;;;;4.43;1.35;;;12.80;99.90;;;;;;4900086;29;20075;-79
2022/04/25 04:06:32;;;;;;;2.17;0.77;;;12.80;99.90;;;;;;4905931;29;20025;-80
2022/04/25 04:08:58;;;;;;;4.50;1.40;;;12.90;99.90;;;;;;4901105;29;20055;-78
2022/04/25 04:11:46;;;;;;;3.28;0.80;;;12.90;99.90;;;;;;4900740;29;20068;-80
2022/04/25 04:14:09;;;;;;;1.77;0.95;;;12.80;99.90;;;;;;4899686;29;20084;-76
2022/04/25 04:16:35;;;;;;;1.20;1.10;;;12.80;99.90;;;;;;4900066;29;20029;-76
2022/04/25 04:19:01;;;;;;;0.63;0.63;;;12.80;99.90;;;;;;4900053;29;20028;-77
2022/04/25 04:21:26;;;;;;;0.85;0.55;;;12.80;99.90;;;;;;4900766;29;20032;-78
2022/04/25 04:23:52;;;;;;;4.25;3.05;;;12.80;99.90;;;;;;4900153;29;20031;-76
2022/04/25 04:26:17;;;;;;;2.70;1.02;;;12.80;99.90;;;;;;4900083;29;20061;-75
2022/04/25 04:28:43;;;;;;;0.52;0.52;;;12.80;99.90;;;;;;4899859;29;20492;-79
2022/04/25 04:31:09;;;;;;;1.00;0.95;;;12.70;99.90;;;;;;4900347;29;20424;-75
2022/04/25 04:33:35;;;;;;;7.22;1.55;;;12.70;99.90;;;;;;4900318;29;20031;-75
2022/04/25 04:36:19;;;;;;;5.57;1.60;;;12.70;99.90;;;;;;4900263;29;20029;-76
2022/04/25 04:38:45;;;;;;;2.10;1.95;;;12.70;99.90;;;;;;4923971;29;20107;-79
2022/04/25 04:41:11;;;;;;;2.72;1.55;;;12.70;99.90;;;;;;4911034;29;20033;-77
2022/04/25 04:43:37;;;;;;;8.98;1.10;;;12.80;99.90;;;;;;4911208;29;20028;-78
2022/04/25 04:46:03;;;;;;;0.55;0.52;;;12.70;99.90;;;;;;4907066;29;20032;-77
2022/04/25 04:48:29;;;;;;;7.97;2.05;;;12.70;99.90;;;;;;4919671;29;20395;-76
2022/04/25 04:50:55;;;;;;;2.38;1.02;;;12.70;99.90;;;;;;4913220;29;20035;-79
2022/04/25 04:53:24;;;;;;;4.22;2.28;;;12.70;99.90;;;;;;4914789;29;20574;-77
2022/04/25 04:55:51;;;;;;;1.02;0.88;;;12.70;99.90;;;;;;4909357;29;20047;-75
2022/04/25 04:58:19;;;;;;;3.28;2.05;;;12.70;99.90;;;;;;4916341;29;20089;-78
2022/04/25 05:00:44;;;;;;;0.57;0.52;;;12.70;99.90;;;;;;4907606;29;20081;-79
2022/04/25 05:03:13;;;;;;;0.30;0.30;;;12.70;99.90;;;;;;4899385;29;20091;-76
2022/04/25 05:05:39;;;;;;;0.30;0.30;;;12.70;99.90;;;;;;4901646;29;20505;-78
2022/04/25 05:08:05;;;;;;;0.73;0.73;;;12.70;99.90;;;;;;4906690;29;20525;-79
2022/04/25 05:10:31;;;;;;;1.60;0.70;;;12.70;99.90;;;;;;4910080;29;20119;-79
2022/04/25 05:12:57;;;;;;;1.33;1.17;;;12.70;99.90;;;;;;4917633;29;20495;-79
2022/04/25 05:15:23;;;;;;;19.42;2.72;;;12.70;99.90;;;;;;4912906;29;20036;-76
2022/04/25 05:17:50;;;;;;;0.95;0.85;;;12.70;99.90;;;;;;4906199;29;20036;-76
2022/04/25 05:20:17;;;;;;;2.50;0.88;;;12.70;99.90;;;;;;4907424;29;20032;-76
2022/04/25 05:22:45;;;;;;;1.33;0.95;;;12.70;99.90;;;;;;4912849;29;20116;-76
2022/04/25 05:25:12;;;;;;;0.85;0.73;;;12.70;99.90;;;;;;4903955;29;20072;-76
2022/04/25 05:27:38;;;;;;;0.95;0.85;;;12.60;99.90;;;;;;4912129;29;20115;-76
2022/04/25 05:30:05;;;;;;;1.95;0.90;;;12.60;99.90;;;;;;4910845;29;20047;-78
2022/04/25 05:33:06;;;;;;;3.15;1.08;;;12.60;99.90;;;;;;4917677;29;20558;-76
2022/04/25 05:35:33;;;;;;;1.38;0.22;;;12.70;99.90;;;;;;4840163;29;20162;-79
2022/04/25 05:38:00;;;;;;;2.58;2.35;;;12.60;99.90;;;;;;4841546;29;20129;-76
2022/04/25 05:40:26;;;;;;;0.32;0.30;;;12.70;99.90;;;;;;4840360;29;20038;-77
2022/04/25 05:42:55;;;;;;;0.93;0.93;;;12.70;99.90;;;;;;4841626;29;20075;-76
2022/04/25 05:45:22;;;;;;;22.98;1.42;;;12.70;99.90;;;;;;4847500;29;20659;-78
2022/04/25 05:47:54;;;;;;;0.75;0.75;;;12.70;99.90;;;;;;4823155;29;20086;-79
2022/04/25 05:53:04;;;;;;;0.73;0.73;;;12.80;99.90;;;;;;4835653;29;20044;-76
2022/04/25 05:55:30;;;;;;;2.60;0.68;;;12.80;99.90;;;;;;4824704;29;20077;-76
2022/04/25 05:58:04;;;;;;;6.60;1.05;;;12.80;99.90;;;;;;4840493;29;20062;-79
2022/04/25 06:00:30;;;;;;;7.78;2.72;;;12.90;99.90;;;;;;4839983;29;20063;-79
2022/04/25 06:02:57;;;;;;;2.13;0.52;;;13.00;99.90;;;;;;4842405;29;20037;-76
2022/04/25 06:05:23;;;;;;;2.20;1.80;;;13.10;99.90;;;;;;4858722;29;20124;-76
2022/04/25 06:07:49;;;;;;;0.57;0.57;;;13.10;99.90;;;;;;4854544;29;20055;-77
2022/04/25 06:10:17;;;;;;;2.03;1.27;;;13.20;99.90;;;;;;4882854;29;20502;-78
2022/04/25 06:12:48;;;;;;;2.00;1.38;;;13.20;99.90;;;;;;4897522;29;20089;-79
2022/04/25 06:15:16;;;;;;;3.55;1.40;;;13.20;99.90;;;;;;4915335;29;20456;-76
2022/04/25 06:17:42;;;;;;;0.60;0.60;;;13.20;99.90;;;;;;4909556;29;20050;-76
2022/04/25 06:20:09;;;;;;;2.88;1.85;;;13.20;99.90;;;;;;4933699;29;20085;-76
2022/04/25 06:22:36;;;;;;;5.30;1.08;;;13.20;99.90;;;;;;4916096;29;20024;-77
2022/04/25 06:25:02;;;;;;;10.23;1.75;;;13.20;99.90;;;;;;4905653;29;20028;-78
2022/04/25 06:27:28;;;;;;;0.80;0.73;;;13.20;99.90;;;;;;4906772;29;20114;-77
2022/04/25 06:29:54;;;;;;;12.45;3.47;;;13.30;99.90;;;;;;4894589;29;20193;-79
2022/04/25 06:32:20;;;;;;;3.78;0.88;;;13.30;99.90;;;;;;4895936;29;20175;-77
2022/04/25 06:34:46;;;;;;;3.70;0.75;;;13.30;99.90;;;;;;4903618;29;20024;-75
2022/04/25 06:37:13;;;;;;;1.67;1.35;;;13.40;99.90;;;;;;4917508;29;20495;-76
2022/04/25 06:39:38;;;;;;;1.13;0.70;;;13.30;99.90;;;;;;4926655;29;20471;-76
2022/04/25 06:42:08;;;;;;;0.88;0.38;;;13.30;99.90;;;;;;4923031;29;20040;-74
2022/04/25 06:44:34;;;;;;;2.03;1.08;;;13.40;99.90;;;;;;4900020;29;20020;-77
2022/04/25 06:47:00;;;;;;;3.63;1.05;;;13.30;99.90;;;;;;4917015;29;20103;-74
2022/04/25 06:49:27;;;;;;;1.88;0.98;;;13.20;99.90;;;;;;4904424;29;20022;-76
2022/04/25 06:51:56;;;;;;;2.65;1.00;;;13.20;99.90;;;;;;4924226;29;20032;-78
2022/04/25 06:54:26;;;;;;;2.88;1.65;;;13.30;99.90;;;;;;4915268;29;20064;-75
2022/04/25 06:56:53;;;;;;;3.22;1.50;;;13.30;99.90;;;;;;4921889;29;20031;-75
2022/04/25 06:59:20;;;;;;;3.03;1.08;;;13.20;99.90;;;;;;4930353;29;20103;-76
2022/04/25 07:01:47;;;;;;;0.68;0.50;;;13.30;99.90;;;;;;4918622;29;20057;-76
2022/04/25 07:04:13;;;;;;;3.35;2.25;;;13.30;99.90;;;;;;4921002;29;20025;-75
2022/04/25 07:06:39;;;;;;;0.98;0.98;;;13.40;99.90;;;;;;4902372;29;20047;-74
2022/04/25 07:09:06;;;;;;;32.38;1.73;;;13.50;99.90;;;;;;4911539;29;20024;-72
2022/04/25 07:11:33;;;;;;;1.85;1.17;;;13.50;99.90;;;;;;4902533;29;20075;-72
2022/04/25 07:14:02;;;;;;;8.98;1.88;;;13.60;99.90;;;;;;4901663;29;20032;-72
2022/04/25 07:16:28;;;;;;;1.17;0.75;;;13.80;99.90;;;;;;4908502;29;20036;-77
2022/04/25 07:18:54;;;;;;;0.28;0.28;;;14.00;99.90;;;;;;4906601;29;20522;-77
2022/04/25 07:29:52;;;;;;;0.40;0.40;;;14.50;99.90;;;;;;4907531;29;20051;-78
2022/04/25 07:32:19;;;;;;;1.25;1.00;;;14.40;99.90;;;;;;4911595;29;20044;-75
2022/04/25 07:34:48;;;;;;;0.63;0.63;;;14.20;99.90;;;;;;4913223;29;20073;-74
2022/04/25 07:37:15;;;;;;;2.38;0.90;;;14.10;99.90;;;;;;4900378;29;20029;-79
2022/04/25 07:39:41;;;;;;;4.03;1.27;;;14.00;99.90;;;;;;4922117;29;20400;-77
2022/04/25 07:42:07;;;;;;;1.38;0.68;;;14.10;99.90;;;;;;4902069;29;20028;-79
2022/04/25 07:44:33;;;;;;;2.40;0.82;;;14.10;99.90;;;;;;4905808;29;20029;-75
2022/04/25 07:46:59;;;;;;;0.77;0.65;;;14.10;99.90;;;;;;4898251;29;20029;-75
2022/04/25 07:49:25;;;;;;;4.32;2.53;;;14.10;99.90;;;;;;4905472;29;20079;-75
2022/04/25 07:51:51;;;;;;;1.67;1.30;;;14.30;99.90;;;;;;4922594;29;20032;-75
2022/04/25 07:54:19;;;;;;;0.55;0.50;;;14.30;99.90;;;;;;4915189;29;20036;-76
2022/04/25 07:56:45;;;;;;;1.20;1.00;;;14.70;99.90;;;;;;4899756;29;20024;-77
2022/04/25 07:59:11;;;;;;;23.65;3.80;;;15.70;99.90;;;;;;4915223;29;20050;-76
2022/04/25 08:01:37;;;;;;;1.23;1.02;;;17.20;99.90;;;;;;4917333;29;20028;-75
2022/04/25 08:04:03;;;;;;;2.25;1.55;;;17.60;99.90;;;;;;4912568;29;20514;-75
2022/04/25 08:06:29;;;;;;;2.30;2.10;;;16.90;99.90;;;;;;4898288;29;20036;-75
2022/04/25 08:08:56;;;;;;;1.73;1.20;;;16.50;99.90;;;;;;4901222;29;20021;-78
2022/04/25 08:11:23;;;;;;;0.95;0.95;;;16.80;99.90;;;;;;4902690;29;20052;-76
2022/04/25 08:19:19;;;;;;;1.02;0.93;;;17.90;99.90;;;;;;4917844;29;20124;-73
2022/04/25 08:21:46;;;;;;;4.40;1.92;;;16.50;99.90;;;;;;4910579;29;20024;-74
2022/04/25 08:24:13;;;;;;;3.58;1.23;;;17.30;99.90;;;;;;4913118;29;20040;-73
2022/04/25 08:26:39;;;;;;;3.15;1.48;;;17.30;99.90;;;;;;4924296;29;20048;-74
2022/04/25 08:29:06;;;;;;;2.05;1.40;;;16.80;99.90;;;;;;4912711;29;20028;-73
2022/04/25 08:31:33;;;;;;;2.60;1.40;;;16.50;99.90;;;;;;4914901;29;20495;-73
2022/04/25 08:34:00;;;;;;;1.85;0.63;;;17.90;99.90;;;;;;4923101;29;20083;-75
2022/04/25 08:36:26;;;;;;;1.88;0.95;;;17.20;99.90;;;;;;4935464;29;20098;-76
2022/04/25 08:38:51;;;;;;;3.17;2.10;;;17.20;99.90;;;;;;4935606;29;20548;-74
2022/04/25 08:41:23;;;;;;;5.18;0.75;;;17.70;99.90;;;;;;4935748;29;20418;-72
2022/04/25 08:43:53;;;;;;;1.40;1.07;;;18.30;99.90;;;;;;4901752;29;20119;-72
2022/04/25 08:46:21;;;;;;;2.40;1.23;;;18.00;99.90;;;;;;4907590;29;20067;-77
2022/04/25 08:48:48;;;;;;;0.60;0.60;;;18.40;99.90;;;;;;4925033;29;20060;-73
2022/04/25 08:51:15;;;;;;;1.45;1.35;;;18.60;99.90;;;;;;4913558;29;20032;-73
2022/04/25 08:53:43;;;;;;;4.90;2.30;;;19.10;99.90;;;;;;4898532;29;20032;-73
2022/04/25 08:56:09;;;;;;;1.90;1.50;;;19.30;99.90;;;;;;4919853;29;20031;-75
2022/04/25 08:58:39;;;;;;;2.13;1.17;;;19.70;99.90;;;;;;4934123;29;20680;-72
2022/04/25 09:01:06;;;;;;;1.63;1.17;;;17.60;99.90;;;;;;4935096;29;20042;-75
2022/04/25 09:03:32;;;;;;;4.57;1.65;;;16.70;99.90;;;;;;4907054;29;20029;-77
2022/04/25 09:05:58;;;;;;;1.55;1.00;;;17.30;99.90;;;;;;4934262;29;20395;-75
2022/04/25 09:08:24;;;;;;;1.25;0.77;;;18.40;99.90;;;;;;4922175;29;20019;-77
2022/04/25 09:10:50;;;;;;;2.90;0.93;;;18.00;99.90;;;;;;4922127;29;20040;-74
2022/04/25 09:13:16;;;;;;;4.70;1.05;;;18.30;99.90;;;;;;4930503;29;20031;-73
2022/04/25 09:15:42;;;;;;;9.43;0.88;;;19.10;99.90;;;;;;4920259;29;20051;-74
2022/04/25 09:18:09;;;;;;;3.33;1.05;;;18.20;99.90;;;;;;4933579;29;20540;-73
2022/04/25 09:20:35;;;;;;;12.82;1.52;;;16.90;99.90;;;;;;4925343;29;20481;-74
2022/04/25 09:23:00;;;;;;;1.00;0.98;;;16.60;99.90;;;;;;4910476;29;20031;-74
2022/04/25 09:25:27;;;;;;;0.80;0.75;;;16.10;99.90;;;;;;4916480;29;20043;-76
2022/04/25 09:28:14;;;;;;;1.05;0.68;;;16.20;99.90;;;;;;4918035;29;20027;-75
2022/04/25 09:30:55;;;;;;;1.00;1.00;;;16.00;99.90;;;;;;4911735;29;20029;-74
2022/04/25 09:33:22;;;;;;;1.85;0.85;;;15.70;99.90;;;;;;4927193;29;20443;-75
2022/04/25 09:35:57;;;;;;;4.45;1.33;;;15.40;99.90;;;;;;4914368;29;20420;-74
2022/04/25 09:38:30;;;;;;;0.30;0.30;;;15.70;99.90;;;;;;4910693;29;20037;-74
2022/04/25 09:40:56;;;;;;;1.30;1.15;;;15.40;99.90;;;;;;4896587;29;20191;-74
2022/04/25 09:43:31;;;;;;;3.13;1.42;;;14.90;99.90;;;;;;4898997;29;20995;-72
2022/04/25 09:46:07;;;;;;;9.93;2.30;;;14.80;99.90;;;;;;4901220;29;20020;-76
2022/04/25 09:48:34;;;;;;;1.55;1.27;;;14.80;99.90;;;;;;4895507;29;20052;-73
2022/04/25 09:51:06;;;;;;;3.92;1.50;;;14.90;99.90;;;;;;4895980;29;20107;-77
2022/04/25 09:53:46;;;;;;;3.58;1.05;;;15.80;99.90;;;;;;4918760;29;20507;-76
2022/04/25 09:56:18;;;;;;;2.75;0.22;;;17.80;99.90;;;;;;4896023;29;20065;-74
2022/04/25 09:58:56;;;;;;;1.63;1.53;;;17.80;99.90;;;;;;4895190;29;20036;-74
2022/04/25 10:01:22;;;;;;;1.23;0.65;;;17.50;99.90;;;;;;4899575;29;20063;-77
2022/04/25 10:03:48;;;;;;;0.85;0.85;;;19.00;99.90;;;;;;4900875;29;20031;-75
2022/04/25 10:06:14;;;;;;;0.80;0.75;;;19.50;99.90;;;;;;4896437;29;20487;-75
2022/04/25 10:08:41;;;;;;;1.25;0.88;;;19.90;99.90;;;;;;4896226;29;20025;-76
2022/04/25 10:11:07;;;;;;;1.80;0.95;;;20.60;99.90;;;;;;4911010;29;20024;-76
2022/04/25 10:13:34;;;;;;;2.08;1.70;;;20.40;99.90;;;;;;4914082;29;20134;-75
2022/04/25 10:16:01;;;;;;;9.52;1.80;;;20.10;99.90;;;;;;4898043;29;20040;-74
2022/04/25 10:18:30;;;;;;;2.83;1.38;;;20.70;99.90;;;;;;4926169;29;20028;-74
2022/04/25 10:20:56;;;;;;;3.92;1.67;;;20.50;99.90;;;;;;4920375;29;20039;-77
2022/04/25 10:23:21;;;;;;;4.28;1.95;;;21.30;99.90;;;;;;4924671;29;20205;-73
2022/04/25 10:25:50;;;;;;;3.92;1.50;;;20.10;99.90;;;;;;4903627;29;20044;-72
2022/04/25 10:28:34;;;;;;;5.03;1.02;;;17.90;99.90;;;;;;4917728;29;20058;-73
2022/04/25 10:31:13;;;;;;;1.13;1.02;;;16.30;99.90;;;;;;4933969;29;20078;-79
2022/04/25 10:33:58;;;;;;;1.13;0.82;;;15.90;99.90;;;;;;4932626;29;20055;-77
2022/04/25 10:36:39;;;;;;;1.50;0.57;;;15.80;99.90;;;;;;4913629;29;20039;-76
2022/04/25 10:39:20;;;;;;;2.47;0.77;;;16.10;99.90;;;;;;4909933;29;20036;-73
2022/04/25 10:44:42;;;;;;;1.52;1.42;;;17.00;99.90;;;;;;4905084;29;20080;-77
2022/04/25 10:47:14;;;;;;;2.40;1.25;;;20.00;99.90;;;;;;4910276;29;20092;-76
2022/04/25 10:49:58;;;;;;;1.67;1.25;;;21.10;99.90;;;;;;4894382;29;20027;-74
2022/04/25 10:52:41;;;;;;;8.57;1.02;;;21.00;99.90;;;;;;4903199;29;20140;-74
2022/04/25 10:55:21;;;;;;;4.72;1.65;;;21.70;99.90;;;;;;4892768;29;20401;-75
2022/04/25 10:58:02;;;;;;;8.32;2.90;;;20.60;99.90;;;;;;4892920;29;20032;-75
2022/04/25 11:00:37;;;;;;;1.65;0.65;;;18.50;99.90;;;;;;4906749;29;20502;-74
2022/04/25 11:03:23;;;;;;;1.35;0.98;;;17.20;99.90;;;;;;4916001;29;20176;-74
2022/04/25 11:05:50;;;;;;;2.65;1.55;;;17.00;99.90;;;;;;4902829;29;20441;-72
2022/04/25 11:08:21;;;;;;;3.40;1.35;;;16.60;99.90;;;;;;4899582;29;20021;-73
2022/04/25 11:11:02;;;;;;;14.30;1.95;;;16.10;99.90;;;;;;4908766;29;20032;-75
2022/04/25 11:13:56;;;;;;;1.58;1.20;;;16.20;99.90;;;;;;4906690;29;20060;-75
2022/04/25 11:16:24;;;;;;;0.93;0.88;;;16.40;99.90;;;;;;4893275;29;20040;-76
2022/04/25 11:19:08;;;;;;;2.75;0.85;;;16.60;99.90;;;;;;4914182;29;20032;-74
2022/04/25 11:21:34;;;;;;;4.00;1.42;;;17.10;99.90;;;;;;4913647;29;20024;-76
2022/04/25 11:24:01;;;;;;;1.27;0.93;;;17.80;99.90;;;;;;4917212;29;20028;-75
2022/04/25 11:26:28;;;;;;;2.05;0.90;;;18.40;99.90;;;;;;4906684;29;20118;-74
2022/04/25 11:28:54;;;;;;;1.92;1.35;;;19.20;99.90;;;;;;4906358;29;20023;-76
2022/04/25 11:31:25;;;;;;;16.88;2.00;;;19.90;99.90;;;;;;4932769;29;20135;-72
2022/04/25 11:33:53;;;;;;;2.05;1.83;;;20.10;99.90;;;;;;4912592;29;20028;-74
2022/04/25 11:36:20;;;;;;;1.33;1.00;;;19.70;99.90;;;;;;4900268;29;20417;-75
2022/04/25 11:41:32;;;;;;;0.90;0.90;;;18.50;99.90;;;;;;4934546;29;20525;-75
2022/04/25 11:43:58;;;;;;;3.17;0.52;;;18.30;99.90;;;;;;4898147;29;20027;-74
2022/04/25 11:46:25;;;;;;;1.30;1.17;;;18.50;99.90;;;;;;4899227;29;20024;-74
2022/04/25 11:48:52;;;;;;;2.67;1.25;;;18.20;99.90;;;;;;4898867;29;20029;-75
2022/04/25 11:51:24;;;;;;;2.63;0.90;;;18.40;99.90;;;;;;4918161;29;20138;-71
2022/04/25 11:53:54;;;;;;;3.88;1.67;;;18.20;99.90;;;;;;4920707;29;20485;-72
2022/04/25 11:56:23;;;;;;;9.40;0.98;;;18.70;99.90;;;;;;4913672;29;20088;-73
2022/04/25 11:58:52;;;;;;;5.55;1.17;;;18.20;99.90;;;;;;4922787;29;20031;-73
2022/04/25 12:01:52;;;;;;;1.67;0.73;;;17.80;99.90;;;;;;4938404;29;20035;-75
2022/04/25 12:04:37;;;;;;;16.63;1.75;;;18.10;99.90;;;;;;4900055;29;20039;-72
2022/04/25 12:07:04;;;;;;;6.65;1.63;;;18.10;99.90;;;;;;4925457;29;20043;-72
2022/04/25 12:15:34;;;;;;;0.93;0.80;;;18.40;99.90;;;;;;4911952;29;20422;-75
2022/04/25 12:18:25;;;;;;;2.35;1.90;;;18.00;99.90;;;;;;4922045;29;20107;-73
2022/04/25 12:21:11;;;;;;;2.97;1.55;;;18.10;99.90;;;;;;4924979;29;20086;-73
2022/04/25 12:23:49;;;;;;;3.40;1.48;;;18.60;99.90;;;;;;4912989;29;20031;-73
2022/04/25 12:26:31;;;;;;;5.40;0.90;;;19.00;99.90;;;;;;4912174;29;20048;-75
2022/04/25 12:29:05;;;;;;;2.13;1.38;;;18.50;99.90;;;;;;4914818;29;20032;-74
2022/04/25 12:31:37;;;;;;;3.20;1.15;;;18.40;99.90;;;;;;4903360;29;20448;-75
2022/04/25 12:34:08;;;;;;;2.60;1.33;;;18.40;99.90;;;;;;4907588;29;20047;-74
2022/04/25 12:36:34;;;;;;;5.80;1.65;;;18.20;99.90;;;;;;4917433;29;20032;-72
2022/04/25 12:39:09;;;;;;;1.02;0.55;;;18.40;99.90;;;;;;4934606;29;20032;-72
2022/04/25 12:41:37;;;;;;;3.85;1.90;;;17.90;99.90;;;;;;4911723;29;20107;-72
2022/04/25 12:44:15;;;;;;;5.47;1.30;;;17.90;99.90;;;;;;4907062;29;20503;-73
2022/04/25 12:46:48;;;;;;;2.53;1.65;;;18.00;99.90;;;;;;4910094;29;20020;-73
2022/04/25 12:49:22;;;;;;;6.18;1.83;;;18.10;99.90;;;;;;4906541;29;20033;-73
2022/04/25 12:51:54;;;;;;;3.65;0.63;;;18.50;99.90;;;;;;4908087;29;20139;-75
2022/04/25 12:54:30;;;;;;;2.67;1.92;;;18.30;99.90;;;;;;4933791;29;20063;-73
2022/04/25 12:57:13;;;;;;;2.97;1.00;;;18.20;99.90;;;;;;4937775;29;20106;-72
2022/04/25 12:59:40;;;;;;;3.22;1.38;;;18.30;99.90;;;;;;4937875;29;20106;-71
2022/04/25 13:02:12;;;;;;;1.52;1.05;;;18.10;99.90;;;;;;4925666;29;20551;-73
2022/04/25 13:04:52;;;;;;;0.80;0.80;;;17.70;99.90;;;;;;4929593;29;20115;-72
2022/04/25 13:07:38;;;;;;;1.10;1.00;;;17.80;99.90;;;;;;4918535;29;20035;-75
2022/04/25 13:10:10;;;;;;;1.77;1.00;;;17.70;99.90;;;;;;4919129;29;20032;-72
2022/04/25 13:12:39;;;;;;;11.35;1.55;;;17.60;99.90;;;;;;4907997;29;20075;-75
2022/04/25 13:15:07;;;;;;;3.05;1.60;;;17.80;99.90;;;;;;4907979;29;20024;-75
2022/04/25 13:17:33;;;;;;;5.07;2.33;;;17.80;99.90;;;;;;4910421;29;20028;-73
2022/04/25 13:19:59;;;;;;;10.38;1.00;;;18.00;99.90;;;;;;4898389;29;20564;-73
2022/04/25 13:22:25;;;;;;;2.63;0.80;;;18.10;99.90;;;;;;4905947;29;20024;-73
2022/04/25 13:24:51;;;;;;;3.30;1.55;;;17.80;99.90;;;;;;4894288;29;20028;-72
2022/04/25 13:27:17;;;;;;;9.95;2.22;;;17.60;99.90;;;;;;4910122;29;20055;-73